createdAt,value
2022-10-17T00:01:18.317Z,16.50
2022-10-17T00:03:48.970Z,16.50
2022-10-17T00:06:17.066Z,16.40
2022-10-17T00:08:44.722Z,16.50
2022-10-17T00:11:23.087Z,16.50
2022-10-17T00:13:55.272Z,16.50
2022-10-17T00:16:32.786Z,16.50
2022-10-17T00:19:01.044Z,16.60
2022-10-17T00:21:37.003Z,16.70
2022-10-17T00:24:04.063Z,16.70
2022-10-17T00:26:33.889Z,16.70
2022-10-17T00:29:04.829Z,16.80
2022-10-17T00:31:33.086Z,16.90
2022-10-17T00:33:59.837Z,16.90
2022-10-17T00:36:31.841Z,16.90
2022-10-17T00:39:00.090Z,17.00
2022-10-17T00:41:31.545Z,17.00
2022-10-17T00:44:01.450Z,17.00
2022-10-17T00:46:31.795Z,17.10
2022-10-17T00:49:05.329Z,17.20
2022-10-17T00:51:46.188Z,17.20
2022-10-17T00:54:17.094Z,17.20
2022-10-17T00:56:46.959Z,17.30
2022-10-17T00:59:17.661Z,17.30
2022-10-17T01:01:56.806Z,17.30
2022-10-17T01:04:25.792Z,17.30
2022-10-17T01:06:52.689Z,17.30
2022-10-17T01:09:21.192Z,17.30
2022-10-17T01:12:15.759Z,17.30
2022-10-17T01:14:46.745Z,17.30
2022-10-17T01:17:34.015Z,17.30
2022-10-17T01:20:27.264Z,17.30
2022-10-17T01:23:14.396Z,17.30
2022-10-17T01:26:19.576Z,17.30
2022-10-17T01:29:14.982Z,17.20
2022-10-17T01:31:49.886Z,17.20
2022-10-17T01:34:25.775Z,17.30
2022-10-17T01:37:16.356Z,17.30
2022-10-17T01:39:53.078Z,17.20
2022-10-17T01:42:27.460Z,17.20
2022-10-17T01:45:02.476Z,17.20
2022-10-17T01:47:32.634Z,17.20
2022-10-17T01:50:10.716Z,17.20
2022-10-17T01:52:48.019Z,17.20
2022-10-17T01:55:34.897Z,17.30
2022-10-17T01:58:16.847Z,17.30
2022-10-17T02:00:47.895Z,17.30
2022-10-17T02:03:19.622Z,17.40
2022-10-17T02:05:46.519Z,17.30
2022-10-17T02:08:27.638Z,17.30
2022-10-17T02:11:04.410Z,17.30
2022-10-17T02:13:55.276Z,17.30
2022-10-17T02:16:31.063Z,17.30
2022-10-17T02:19:23.278Z,17.40
2022-10-17T02:22:24.250Z,17.40
2022-10-17T02:25:12.379Z,17.50
2022-10-17T02:27:48.482Z,17.50
2022-10-17T02:30:36.997Z,17.50
2022-10-17T02:33:44.179Z,17.50
2022-10-17T02:36:20.090Z,17.40
2022-10-17T02:38:48.378Z,17.50
2022-10-17T02:41:19.607Z,17.50
2022-10-17T02:43:51.041Z,17.50
2022-10-17T02:46:23.326Z,17.50
2022-10-17T02:48:56.905Z,17.50
2022-10-17T02:51:32.411Z,17.60
2022-10-17T02:54:31.710Z,17.70
2022-10-17T02:57:27.313Z,17.70
2022-10-17T02:59:57.416Z,17.70
2022-10-17T03:02:25.601Z,17.70
2022-10-17T03:04:54.585Z,17.80
2022-10-17T03:07:21.401Z,17.80
2022-10-17T03:09:49.271Z,17.90
2022-10-17T03:12:16.326Z,17.80
2022-10-17T03:14:43.213Z,17.80
2022-10-17T03:17:13.345Z,17.80
2022-10-17T03:19:43.115Z,17.80
2022-10-17T03:22:36.464Z,17.80
2022-10-17T03:25:05.081Z,17.80
2022-10-17T03:27:34.997Z,17.80
2022-10-17T03:30:05.684Z,17.80
2022-10-17T03:32:35.055Z,17.80
2022-10-17T03:35:05.241Z,17.80
2022-10-17T03:37:32.607Z,17.80
2022-10-17T03:39:59.795Z,17.80
2022-10-17T03:42:27.761Z,17.80
2022-10-17T03:44:55.626Z,17.80
2022-10-17T03:47:23.870Z,17.80
2022-10-17T03:49:53.740Z,17.80
2022-10-17T03:52:22.415Z,17.80
2022-10-17T03:54:53.604Z,17.80
2022-10-17T03:57:21.046Z,17.70
2022-10-17T03:59:49.835Z,17.80
2022-10-17T04:02:19.129Z,17.70
2022-10-17T04:04:45.984Z,17.70
2022-10-17T04:07:12.891Z,17.60
2022-10-17T04:09:44.372Z,17.70
2022-10-17T04:12:17.594Z,17.60
2022-10-17T04:14:44.909Z,17.50
2022-10-17T04:17:14.643Z,17.50
2022-10-17T04:19:41.620Z,17.50
2022-10-17T04:22:09.180Z,17.50
2022-10-17T04:24:39.662Z,17.50
2022-10-17T04:27:10.324Z,17.50
2022-10-17T04:29:42.071Z,17.50
2022-10-17T04:32:17.358Z,17.40
2022-10-17T04:35:02.364Z,17.40
2022-10-17T04:37:30.648Z,17.50
2022-10-17T04:39:59.974Z,17.50
2022-10-17T04:42:33.523Z,17.40
2022-10-17T04:45:01.376Z,17.40
2022-10-17T04:47:30.419Z,17.40
2022-10-17T04:49:58.373Z,17.40
2022-10-17T04:52:26.769Z,17.40
2022-10-17T04:54:55.177Z,17.40
2022-10-17T04:57:22.113Z,17.40
2022-10-17T04:59:56.629Z,17.40
2022-10-17T05:02:34.818Z,17.40
2022-10-17T05:05:06.663Z,17.40
2022-10-17T05:07:40.703Z,17.50
2022-10-17T05:10:12.482Z,17.40
2022-10-17T05:12:44.502Z,17.40
2022-10-17T05:15:13.054Z,17.40
2022-10-17T05:17:40.990Z,17.40
2022-10-17T05:20:11.690Z,17.40
2022-10-17T05:22:42.102Z,17.40
2022-10-17T05:25:10.775Z,17.40
2022-10-17T05:27:38.271Z,17.50
2022-10-17T05:30:06.813Z,17.50
2022-10-17T05:32:36.483Z,17.50
2022-10-17T05:35:05.023Z,17.60
2022-10-17T05:37:33.842Z,17.60
2022-10-17T05:40:02.725Z,17.70
2022-10-17T05:42:31.960Z,17.60
2022-10-17T05:44:59.100Z,17.70
2022-10-17T05:47:28.228Z,17.60
2022-10-17T05:49:55.433Z,17.60
2022-10-17T05:52:30.184Z,17.60
2022-10-17T05:55:09.938Z,17.70
2022-10-17T05:57:37.903Z,17.60
2022-10-17T06:00:09.045Z,17.60
2022-10-17T06:02:42.489Z,17.60
2022-10-17T06:05:12.271Z,17.60
2022-10-17T06:07:42.946Z,17.60
2022-10-17T06:10:15.034Z,17.60
2022-10-17T06:12:44.378Z,17.70
2022-10-17T06:15:12.950Z,17.70
2022-10-17T06:17:43.129Z,17.80
2022-10-17T06:20:10.314Z,17.70
2022-10-17T06:22:37.476Z,17.70
2022-10-17T06:25:09.174Z,17.80
2022-10-17T06:27:36.049Z,17.70
2022-10-17T06:30:04.514Z,17.70
2022-10-17T06:32:32.997Z,17.60
2022-10-17T06:35:01.838Z,17.70
2022-10-17T06:37:35.494Z,17.60
2022-10-17T06:40:09.049Z,17.70
2022-10-17T06:42:39.390Z,17.70
2022-10-17T06:45:25.366Z,17.70
2022-10-17T06:48:07.950Z,17.80
2022-10-17T06:50:50.470Z,17.80
2022-10-17T06:53:25.031Z,17.90
2022-10-17T06:56:08.324Z,18.00
2022-10-17T06:58:47.735Z,18.10
2022-10-17T07:01:34.298Z,18.20
2022-10-17T07:04:03.560Z,18.20
2022-10-17T07:06:31.991Z,18.30
2022-10-17T07:09:06.765Z,18.30
2022-10-17T07:11:36.460Z,18.20
2022-10-17T07:14:03.853Z,18.20
2022-10-17T07:16:30.765Z,18.30
2022-10-17T07:19:17.523Z,18.20
2022-10-17T07:21:45.478Z,18.20
2022-10-17T07:24:13.063Z,18.30
2022-10-17T07:26:42.947Z,18.30
2022-10-17T07:29:11.297Z,18.30
2022-10-17T07:31:52.060Z,18.30
2022-10-17T07:34:19.477Z,18.30
2022-10-17T07:36:46.374Z,18.20
2022-10-17T07:39:15.904Z,18.10
2022-10-17T07:41:42.998Z,18.00
2022-10-17T07:44:11.536Z,18.10
2022-10-17T07:46:44.291Z,18.00
2022-10-17T07:49:11.273Z,17.90
2022-10-17T07:51:40.408Z,18.10
2022-10-17T07:54:07.308Z,18.10
2022-10-17T07:56:34.307Z,18.10
2022-10-17T07:59:03.849Z,18.00
2022-10-17T08:01:33.577Z,17.80
2022-10-17T08:04:00.572Z,17.60
2022-10-17T08:06:28.408Z,17.60
2022-10-17T08:08:55.659Z,17.50
2022-10-17T08:11:23.236Z,17.50
2022-10-17T08:13:50.126Z,17.40
2022-10-17T08:16:17.006Z,17.40
2022-10-17T08:18:44.098Z,17.30
2022-10-17T08:21:12.979Z,17.30
2022-10-17T08:23:39.863Z,17.30
2022-10-17T08:26:10.688Z,17.30
2022-10-17T08:28:39.385Z,17.30
2022-10-17T08:31:27.340Z,17.30
2022-10-17T08:33:54.129Z,17.40
2022-10-17T08:36:21.381Z,17.50
2022-10-17T08:38:52.605Z,17.70
2022-10-17T08:41:41.140Z,17.70
2022-10-17T08:44:43.784Z,17.80
2022-10-17T08:47:14.932Z,17.80
2022-10-17T08:50:13.389Z,17.80
2022-10-17T08:52:51.122Z,17.80
2022-10-17T08:55:42.806Z,17.80
2022-10-17T08:58:26.243Z,17.90
2022-10-17T09:01:10.363Z,17.90
2022-10-17T09:04:14.332Z,17.80
2022-10-17T09:06:47.428Z,17.60
2022-10-17T09:09:47.353Z,17.70
2022-10-17T09:12:23.024Z,17.60
2022-10-17T09:15:32.020Z,17.70
2022-10-17T09:18:04.847Z,17.60
2022-10-17T09:20:36.914Z,17.60
2022-10-17T09:23:23.891Z,17.70
2022-10-17T09:25:54.521Z,17.70
2022-10-17T09:28:36.184Z,17.70
2022-10-17T09:31:24.810Z,17.60
2022-10-17T09:33:55.380Z,17.60
2022-10-17T09:36:30.330Z,17.70
2022-10-17T09:39:22.414Z,17.70
2022-10-17T09:41:55.655Z,17.70
2022-10-17T09:44:36.222Z,17.80
2022-10-17T09:47:10.033Z,17.80
2022-10-17T09:49:40.656Z,17.80
2022-10-17T09:52:33.434Z,17.90
2022-10-17T09:55:03.173Z,17.90
2022-10-17T09:58:00.547Z,17.90
2022-10-17T10:00:35.614Z,17.80
2022-10-17T10:03:08.690Z,17.90
2022-10-17T10:05:36.886Z,17.90
2022-10-17T10:08:16.517Z,18.00
2022-10-17T10:10:46.486Z,18.00
2022-10-17T10:13:13.269Z,18.10
2022-10-17T10:15:50.981Z,18.20
2022-10-17T10:18:26.901Z,18.20
2022-10-17T10:21:08.910Z,18.30
2022-10-17T10:23:41.108Z,18.40
2022-10-17T10:26:30.049Z,18.30
2022-10-17T10:29:23.630Z,18.10
2022-10-17T10:31:54.151Z,17.90
2022-10-17T10:34:32.546Z,17.90
2022-10-17T10:37:17.139Z,17.90
2022-10-17T10:40:03.383Z,17.90
2022-10-17T10:42:36.722Z,17.90
2022-10-17T10:48:26.112Z,17.90
2022-10-17T10:51:06.552Z,17.80
2022-10-17T10:53:39.281Z,17.90
2022-10-17T10:56:26.715Z,17.80
2022-10-17T10:59:09.016Z,17.90
2022-10-17T11:01:50.860Z,17.90
2022-10-17T11:04:32.581Z,17.90
2022-10-17T11:07:28.633Z,17.90
2022-10-17T11:10:16.829Z,17.80
2022-10-17T11:12:55.137Z,17.70
2022-10-17T11:15:44.338Z,17.80
2022-10-17T11:18:16.681Z,17.80
2022-10-17T11:20:58.360Z,17.90
2022-10-17T11:23:40.141Z,18.00
2022-10-17T11:26:13.927Z,18.00
2022-10-17T11:28:40.872Z,18.20
2022-10-17T11:31:12.743Z,18.10
2022-10-17T11:34:07.600Z,18.10
2022-10-17T11:36:44.237Z,18.20
2022-10-17T11:39:17.573Z,18.20
2022-10-17T11:42:10.016Z,18.20
2022-10-17T11:44:40.300Z,18.20
2022-10-17T11:47:45.288Z,18.30
2022-10-17T11:53:28.646Z,18.40
2022-10-17T11:55:59.114Z,18.50
2022-10-17T11:58:46.310Z,18.60
2022-10-17T12:01:26.871Z,18.50
2022-10-17T12:04:11.469Z,18.50
2022-10-17T12:06:57.391Z,18.40
2022-10-17T12:09:31.129Z,18.40
2022-10-17T12:12:02.405Z,18.40
2022-10-17T12:14:38.473Z,18.30
2022-10-17T12:17:21.574Z,18.20
2022-10-17T12:19:49.413Z,18.10
2022-10-17T12:22:26.820Z,18.10
2022-10-17T12:25:02.762Z,18.30
2022-10-17T12:27:42.404Z,18.20
2022-10-17T12:30:12.387Z,18.30
2022-10-17T12:33:05.711Z,18.40
2022-10-17T12:35:36.945Z,18.40
2022-10-17T12:38:23.589Z,18.40
2022-10-17T12:40:56.689Z,18.30
2022-10-17T12:46:51.217Z,18.40
2022-10-17T12:49:45.439Z,18.50
2022-10-17T12:52:31.535Z,18.50
2022-10-17T12:55:13.381Z,18.60
2022-10-17T12:57:59.421Z,18.60
2022-10-17T13:00:37.571Z,18.60
2022-10-17T13:03:22.262Z,18.70
2022-10-17T13:05:56.897Z,18.70
2022-10-17T13:08:44.896Z,18.60
2022-10-17T13:11:13.645Z,18.60
2022-10-17T13:13:48.934Z,18.60
2022-10-17T13:16:39.906Z,18.70
2022-10-17T13:19:18.285Z,18.90
2022-10-17T13:22:22.269Z,19.00
2022-10-17T13:24:51.484Z,19.00
2022-10-17T13:27:26.338Z,18.90
2022-10-17T13:29:53.664Z,18.80
2022-10-17T13:32:21.898Z,18.80
2022-10-17T13:35:11.240Z,18.80
2022-10-17T13:37:43.414Z,18.80
2022-10-17T13:40:44.595Z,18.70
2022-10-17T13:43:19.798Z,18.70
2022-10-17T13:45:53.913Z,18.70
2022-10-17T13:48:25.849Z,18.80
2022-10-17T13:51:03.088Z,18.70
2022-10-17T13:53:33.346Z,18.60
2022-10-17T13:56:26.520Z,18.70
2022-10-17T13:58:56.228Z,18.70
2022-10-17T14:01:26.502Z,18.80
2022-10-17T14:04:07.905Z,18.80
2022-10-17T14:06:46.286Z,18.70
2022-10-17T14:09:28.842Z,18.60
2022-10-17T14:12:03.290Z,18.70
2022-10-17T14:14:46.041Z,18.70
2022-10-17T14:17:28.139Z,18.70
2022-10-17T14:20:40.385Z,18.90
2022-10-17T14:23:10.789Z,18.90
2022-10-17T14:25:41.069Z,18.80
2022-10-17T14:28:11.578Z,18.80
2022-10-17T14:30:56.812Z,18.90
2022-10-17T14:33:31.077Z,18.90
2022-10-17T14:36:00.712Z,18.90
2022-10-17T14:38:29.787Z,18.90
2022-10-17T14:41:23.548Z,18.80
2022-10-17T14:44:02.839Z,18.80
2022-10-17T14:46:29.916Z,18.90
2022-10-17T14:49:07.774Z,19.00
2022-10-17T14:51:50.244Z,19.10
2022-10-17T14:54:32.771Z,19.20
2022-10-17T14:56:59.706Z,19.30
2022-10-17T15:02:15.083Z,19.10
2022-10-17T15:04:42.972Z,19.00
2022-10-17T15:07:17.476Z,19.00
2022-10-17T15:09:55.069Z,19.00
2022-10-17T15:12:25.183Z,19.00
2022-10-17T15:14:54.284Z,19.10
2022-10-17T15:17:32.981Z,19.10
2022-10-17T15:20:00.308Z,19.10
2022-10-17T15:22:27.328Z,19.10
2022-10-17T15:24:54.437Z,19.00
2022-10-17T15:27:23.811Z,18.90
2022-10-17T15:29:51.749Z,18.90
2022-10-17T15:32:19.935Z,18.90
2022-10-17T15:34:46.898Z,18.90
2022-10-17T15:37:22.054Z,18.80
2022-10-17T15:39:54.423Z,18.70
2022-10-17T15:42:27.506Z,18.60
2022-10-17T15:44:56.108Z,18.50
2022-10-17T15:47:33.309Z,18.50
2022-10-17T15:50:02.747Z,18.50
2022-10-17T15:52:29.796Z,18.50
2022-10-17T15:54:59.535Z,18.50
2022-10-17T15:57:36.225Z,18.40
2022-10-17T16:00:16.559Z,18.50
2022-10-17T16:02:44.424Z,18.50
2022-10-17T16:05:23.570Z,18.50
2022-10-17T16:07:51.550Z,18.40
2022-10-17T16:10:19.854Z,18.40
2022-10-17T16:12:49.777Z,18.30
2022-10-17T16:15:22.959Z,18.40
2022-10-17T16:17:50.714Z,18.30
2022-10-17T16:20:18.193Z,18.30
2022-10-17T16:22:45.942Z,18.30
2022-10-17T16:25:25.047Z,18.30
2022-10-17T16:27:55.217Z,18.30
2022-10-17T16:30:23.733Z,18.20
2022-10-17T16:32:51.312Z,18.20
2022-10-17T16:35:22.512Z,18.20
2022-10-17T16:37:50.395Z,18.00
2022-10-17T16:40:17.655Z,18.00
2022-10-17T16:42:45.059Z,18.00
2022-10-17T16:45:21.693Z,17.90
2022-10-17T16:47:49.206Z,17.90
2022-10-17T16:50:16.559Z,17.90
2022-10-17T16:52:44.414Z,17.80
2022-10-17T16:55:11.691Z,17.80
2022-10-17T16:57:38.989Z,17.90
2022-10-17T17:00:08.099Z,17.90
2022-10-17T17:02:35.287Z,17.90
2022-10-17T17:05:02.419Z,17.90
2022-10-17T17:07:31.688Z,17.90
2022-10-17T17:10:01.025Z,17.90
2022-10-17T17:12:28.159Z,17.90
2022-10-17T17:14:55.536Z,17.80
2022-10-17T17:17:30.632Z,17.80
2022-10-17T17:20:09.704Z,17.70
2022-10-17T17:22:37.616Z,17.70
2022-10-17T17:25:04.754Z,17.70
2022-10-17T17:27:33.021Z,17.60
2022-10-17T17:30:01.980Z,17.60
2022-10-17T17:32:28.844Z,17.60
2022-10-17T17:34:56.845Z,17.60
2022-10-17T17:37:25.029Z,17.50
2022-10-17T17:39:51.947Z,17.50
2022-10-17T17:42:20.841Z,17.50
2022-10-17T17:44:49.558Z,17.40
2022-10-17T17:47:17.217Z,17.40
2022-10-17T17:49:44.073Z,17.30
2022-10-17T17:52:11.532Z,17.30
2022-10-17T17:54:45.597Z,17.30
2022-10-17T17:57:24.408Z,17.20
2022-10-17T17:59:54.899Z,17.30
2022-10-17T18:02:22.768Z,17.30
2022-10-17T18:04:51.728Z,17.30
2022-10-17T18:07:19.120Z,17.40
2022-10-17T18:12:32.810Z,17.20
2022-10-17T18:15:00.354Z,17.30
2022-10-17T18:17:28.031Z,17.30
2022-10-17T18:19:56.057Z,17.20
2022-10-17T18:22:26.073Z,17.20
2022-10-17T18:24:57.999Z,17.10
2022-10-17T18:27:25.217Z,17.10
2022-10-17T18:29:53.490Z,17.00
2022-10-17T18:32:23.654Z,17.10
2022-10-17T18:34:50.709Z,17.00
2022-10-17T18:37:17.588Z,17.10
2022-10-17T18:39:46.228Z,17.10
2022-10-17T18:42:13.253Z,17.10
2022-10-17T18:44:41.354Z,17.10
2022-10-17T18:47:08.210Z,17.00
2022-10-17T18:49:36.123Z,17.10
2022-10-17T18:52:04.084Z,17.10
2022-10-17T18:54:33.699Z,17.00
2022-10-17T18:57:00.792Z,16.90
2022-10-17T18:59:28.024Z,16.90
2022-10-17T19:01:56.085Z,16.90
2022-10-17T19:04:24.322Z,16.90
2022-10-17T19:06:52.196Z,17.00
2022-10-17T19:09:19.215Z,17.00
2022-10-17T19:11:46.207Z,17.00
2022-10-17T19:14:14.640Z,16.90
2022-10-17T19:16:44.735Z,17.00
2022-10-17T19:19:20.426Z,16.90
2022-10-17T19:21:48.091Z,16.90
2022-10-17T19:24:21.717Z,16.90
2022-10-17T19:26:55.117Z,16.90
2022-10-17T19:29:25.473Z,16.90
2022-10-17T19:34:25.081Z,16.80
2022-10-17T19:36:55.852Z,16.80
2022-10-17T19:39:25.208Z,16.90
2022-10-17T19:41:55.812Z,16.90
2022-10-17T19:44:26.849Z,17.00
2022-10-17T19:46:56.856Z,17.00
2022-10-17T19:49:25.914Z,17.00
2022-10-17T19:51:54.996Z,17.00
2022-10-17T19:54:23.680Z,17.10
2022-10-17T19:56:53.929Z,17.00
2022-10-17T19:59:22.124Z,17.00
2022-10-17T20:01:49.285Z,17.00
2022-10-17T20:04:17.270Z,17.10
2022-10-17T20:06:45.256Z,17.10
2022-10-17T20:09:16.597Z,17.10
2022-10-17T20:11:44.972Z,17.10
2022-10-17T20:14:12.103Z,17.10
2022-10-17T20:16:39.092Z,17.10
2022-10-17T20:19:09.464Z,17.10
2022-10-17T20:21:40.081Z,17.00
2022-10-17T20:24:11.023Z,17.00
2022-10-17T20:26:40.055Z,17.00
2022-10-17T20:29:14.367Z,17.00
2022-10-17T20:31:44.887Z,17.00
2022-10-17T20:34:14.860Z,17.00
2022-10-17T20:36:44.085Z,16.90
2022-10-17T20:39:14.115Z,16.90
2022-10-17T20:41:43.970Z,17.00
2022-10-17T20:44:11.362Z,17.00
2022-10-17T20:46:44.696Z,17.00
2022-10-17T20:49:19.782Z,17.00
2022-10-17T20:51:48.101Z,17.00
2022-10-17T20:54:16.050Z,17.00
2022-10-17T20:56:44.139Z,17.00
2022-10-17T20:59:14.386Z,16.90
2022-10-17T21:01:41.868Z,16.90
2022-10-17T21:06:59.860Z,17.10
2022-10-17T21:09:27.934Z,17.30
2022-10-17T21:11:56.128Z,17.40
2022-10-17T21:14:25.219Z,17.40
2022-10-17T21:16:53.757Z,17.40
2022-10-17T21:19:22.643Z,17.30
2022-10-17T21:21:50.276Z,17.20
2022-10-17T21:24:19.194Z,17.20
2022-10-17T21:26:50.381Z,17.10
2022-10-17T21:29:17.303Z,17.20
2022-10-17T21:31:45.501Z,17.20
2022-10-17T21:34:28.086Z,17.30
2022-10-17T21:39:40.284Z,17.30
2022-10-17T21:42:09.247Z,17.20
2022-10-17T21:44:38.477Z,17.20
2022-10-17T21:50:08.066Z,17.10
2022-10-17T21:52:37.982Z,17.20
2022-10-17T21:57:49.720Z,17.00
2022-10-17T22:00:16.764Z,17.00
2022-10-17T22:02:44.805Z,16.90
2022-10-17T22:05:12.818Z,16.90
2022-10-17T22:07:39.704Z,16.80
2022-10-17T22:10:06.921Z,16.80
2022-10-17T22:12:33.901Z,16.80
2022-10-17T22:15:03.190Z,16.80
2022-10-17T22:17:34.395Z,16.80
2022-10-17T22:22:44.512Z,16.80
2022-10-17T22:25:11.600Z,16.80
2022-10-17T22:27:39.639Z,16.80
2022-10-17T22:30:08.270Z,16.80
2022-10-17T22:32:36.908Z,16.90
2022-10-17T22:35:14.187Z,16.90
2022-10-17T22:37:45.657Z,16.90
2022-10-17T22:40:21.791Z,16.90
2022-10-17T22:51:00.766Z,16.90
2022-10-17T22:53:29.812Z,16.90
2022-10-17T22:56:03.216Z,16.90
2022-10-17T22:58:34.098Z,17.00
2022-10-17T23:01:03.311Z,17.00
2022-10-17T23:03:34.345Z,17.00
2022-10-17T23:06:02.704Z,17.10
2022-10-17T23:08:32.157Z,17.10
2022-10-17T23:10:59.253Z,17.20
2022-10-17T23:13:34.502Z,17.20
2022-10-17T23:16:03.904Z,17.20
2022-10-17T23:20:58.220Z,17.30
2022-10-17T23:23:25.185Z,17.30
2022-10-17T23:25:52.144Z,17.30
2022-10-17T23:28:19.284Z,17.30
2022-10-17T23:30:48.446Z,17.20
2022-10-17T23:33:16.913Z,17.30
2022-10-17T23:35:43.838Z,17.10
2022-10-17T23:38:10.850Z,17.10
2022-10-17T23:40:38.795Z,17.00
2022-10-17T23:43:05.889Z,17.20
2022-10-17T23:45:35.939Z,17.20
2022-10-17T23:48:05.849Z,17.20
2022-10-17T23:50:32.881Z,17.20
2022-10-17T23:53:02.779Z,17.30
2022-10-17T23:55:35.749Z,17.30
2022-10-17T23:58:02.648Z,17.30
